createdAt,value
2019-03-23T00:00:06.467Z,90.40
2019-03-23T00:02:35.334Z,90.40
2019-03-23T00:05:06.159Z,90.50
2019-03-23T00:07:35.019Z,90.50
2019-03-23T00:10:04.987Z,90.50
2019-03-23T00:12:33.812Z,90.50
2019-03-23T00:15:02.676Z,90.50
2019-03-23T00:17:31.532Z,90.50
2019-03-23T00:20:00.362Z,90.50
2019-03-23T00:22:29.319Z,90.50
2019-03-23T00:24:58.188Z,90.60
2019-03-23T00:27:27.005Z,90.60
2019-03-23T00:29:55.875Z,90.70
2019-03-23T00:32:24.730Z,90.70
2019-03-23T00:34:53.556Z,90.70
2019-03-23T00:37:22.420Z,90.70
2019-03-23T00:39:51.320Z,90.70
2019-03-23T00:42:20.103Z,90.80
2019-03-23T00:44:48.969Z,90.70
2019-03-23T00:47:17.840Z,90.70
2019-03-23T00:49:46.654Z,90.70
2019-03-23T00:52:15.520Z,90.70
2019-03-23T00:54:44.386Z,90.80
2019-03-23T00:57:13.211Z,90.90
2019-03-23T00:59:42.078Z,90.90
2019-03-23T01:02:10.943Z,91.00
2019-03-23T01:04:39.775Z,91.00
2019-03-23T01:07:08.631Z,91.10
2019-03-23T01:09:37.503Z,91.00
2019-03-23T01:12:06.336Z,91.00
2019-03-23T01:14:35.195Z,91.10
2019-03-23T01:17:04.070Z,91.10
2019-03-23T01:19:32.882Z,91.20
2019-03-23T01:22:01.747Z,91.30
2019-03-23T01:24:30.655Z,91.30
2019-03-23T01:26:59.483Z,91.30
2019-03-23T01:29:28.347Z,91.30
2019-03-23T01:31:57.209Z,91.40
2019-03-23T01:34:26.031Z,91.50
2019-03-23T01:37:02.498Z,91.60
2019-03-23T01:39:25.416Z,91.70
2019-03-23T01:41:54.231Z,91.80
2019-03-23T01:44:23.091Z,91.80
2019-03-23T01:46:51.959Z,91.80
2019-03-23T01:49:20.776Z,91.80
2019-03-23T01:51:49.629Z,91.70
2019-03-23T01:54:18.500Z,91.80
2019-03-23T01:56:47.325Z,91.90
2019-03-23T01:59:16.185Z,91.90
2019-03-23T02:01:45.047Z,92.00
2019-03-23T02:04:13.872Z,92.10
2019-03-23T02:06:42.743Z,92.10
2019-03-23T02:09:11.599Z,92.10
2019-03-23T02:11:40.432Z,92.20
2019-03-23T02:14:09.301Z,92.20
2019-03-23T02:16:38.155Z,92.20
2019-03-23T02:19:06.999Z,92.20
2019-03-23T02:21:35.846Z,92.30
2019-03-23T02:24:04.715Z,92.30
2019-03-23T02:26:33.539Z,92.40
2019-03-23T02:29:02.407Z,92.40
2019-03-23T02:31:31.261Z,92.50
2019-03-23T02:34:00.088Z,92.50
2019-03-23T02:36:28.959Z,92.50
2019-03-23T02:38:57.824Z,92.60
2019-03-23T02:41:26.667Z,92.60
2019-03-23T02:43:55.508Z,92.70
2019-03-23T02:46:24.379Z,92.70
2019-03-23T02:48:53.203Z,92.80
2019-03-23T02:51:22.055Z,92.80
2019-03-23T02:53:50.923Z,92.90
2019-03-23T02:56:19.756Z,92.90
2019-03-23T02:58:48.622Z,92.90
2019-03-23T03:01:17.494Z,93.00
2019-03-23T03:03:46.325Z,93.00
2019-03-23T03:06:15.209Z,93.00
2019-03-23T03:08:44.049Z,93.00
2019-03-23T03:11:12.879Z,93.00
2019-03-23T03:13:41.761Z,93.00
2019-03-23T03:16:10.624Z,93.00
2019-03-23T03:18:39.452Z,93.00
2019-03-23T03:21:08.317Z,93.00
2019-03-23T03:23:37.187Z,93.10
2019-03-23T03:26:06.024Z,93.10
2019-03-23T03:28:35.091Z,93.10
2019-03-23T03:31:03.949Z,93.20
2019-03-23T03:33:32.776Z,93.20
2019-03-23T03:36:01.646Z,93.20
2019-03-23T03:38:30.517Z,93.20
2019-03-23T03:40:59.343Z,93.20
2019-03-23T03:43:28.213Z,93.20
2019-03-23T03:45:57.072Z,93.10
2019-03-23T03:48:25.907Z,93.10
2019-03-23T03:50:54.775Z,93.20
2019-03-23T03:53:23.656Z,93.20
2019-03-23T03:55:52.483Z,93.20
2019-03-23T03:58:21.347Z,93.20
2019-03-23T04:00:50.217Z,93.20
2019-03-23T04:03:19.048Z,93.20
2019-03-23T04:05:47.911Z,93.30
2019-03-23T04:08:16.790Z,93.30
2019-03-23T04:10:45.614Z,93.20
2019-03-23T04:13:14.489Z,93.30
2019-03-23T04:15:43.354Z,93.30
2019-03-23T04:18:12.183Z,93.30
2019-03-23T04:20:41.051Z,93.30
2019-03-23T04:23:09.923Z,93.30
2019-03-23T04:25:38.751Z,93.20
2019-03-23T04:28:07.626Z,93.30
2019-03-23T04:30:36.493Z,93.20
2019-03-23T04:33:05.315Z,93.20
2019-03-23T04:35:34.183Z,93.20
2019-03-23T04:38:03.047Z,93.10
2019-03-23T04:40:31.881Z,93.20
2019-03-23T04:43:00.748Z,93.20
2019-03-23T04:45:29.619Z,93.10
2019-03-23T04:47:58.443Z,93.10
2019-03-23T04:50:27.311Z,93.10
2019-03-23T04:52:56.172Z,93.10
2019-03-23T04:55:24.997Z,93.20
2019-03-23T04:57:53.867Z,93.20
2019-03-23T05:00:22.734Z,93.20
2019-03-23T05:02:51.564Z,93.20
2019-03-23T05:05:20.432Z,93.20
2019-03-23T05:07:49.308Z,93.20
2019-03-23T05:10:18.135Z,93.20
2019-03-23T05:12:46.991Z,93.20
2019-03-23T05:15:15.864Z,93.20
2019-03-23T05:17:44.689Z,93.30
2019-03-23T05:20:28.360Z,93.20
2019-03-23T05:22:57.322Z,93.30
2019-03-23T05:25:27.752Z,93.20
2019-03-23T05:27:57.117Z,93.20
2019-03-23T05:30:25.981Z,93.20
2019-03-23T05:32:54.816Z,93.30
2019-03-23T05:35:23.677Z,93.30
2019-03-23T05:37:52.541Z,93.30
2019-03-23T05:40:21.376Z,93.40
2019-03-23T05:42:50.244Z,93.40
2019-03-23T05:45:19.116Z,93.40
2019-03-23T05:47:47.939Z,93.50
2019-03-23T05:50:16.799Z,93.50
2019-03-23T05:52:45.676Z,93.60
2019-03-23T05:55:14.595Z,93.60
2019-03-23T05:57:43.481Z,93.60
2019-03-23T06:00:14.215Z,93.60
2019-03-23T06:02:43.041Z,93.70
2019-03-23T06:05:11.930Z,93.70
2019-03-23T06:07:40.774Z,93.70
2019-03-23T06:10:09.605Z,93.60
2019-03-23T06:12:38.472Z,93.70
2019-03-23T06:15:07.846Z,93.70
2019-03-23T06:17:36.671Z,93.80
2019-03-23T06:20:07.446Z,93.80
2019-03-23T06:22:36.310Z,93.80
2019-03-23T06:25:07.013Z,93.80
2019-03-23T06:27:35.871Z,93.80
2019-03-23T06:30:06.434Z,93.90
2019-03-23T06:32:35.364Z,93.90
2019-03-23T06:35:05.702Z,93.90
2019-03-23T06:37:34.568Z,93.90
2019-03-23T06:40:05.004Z,94.00
2019-03-23T06:42:33.869Z,93.90
2019-03-23T06:45:02.844Z,94.00
2019-03-23T06:47:31.671Z,94.00
2019-03-23T06:50:00.533Z,94.00
2019-03-23T06:52:29.402Z,93.90
2019-03-23T06:54:58.220Z,93.90
2019-03-23T06:57:27.087Z,93.90
2019-03-23T06:59:55.955Z,93.90
2019-03-23T07:02:24.795Z,93.90
2019-03-23T07:04:53.664Z,93.80
2019-03-23T07:07:22.535Z,93.80
2019-03-23T07:09:51.356Z,93.80
2019-03-23T07:12:20.230Z,93.80
2019-03-23T07:14:49.073Z,93.70
2019-03-23T07:17:17.895Z,93.70
2019-03-23T07:19:46.779Z,93.60
2019-03-23T07:22:15.648Z,93.60
2019-03-23T07:24:59.729Z,93.40
2019-03-23T07:27:28.602Z,93.30
2019-03-23T07:29:57.432Z,93.20
2019-03-23T07:32:26.306Z,92.90
2019-03-23T07:34:55.138Z,92.50
2019-03-23T07:37:23.971Z,92.20
2019-03-23T07:39:52.840Z,91.90
2019-03-23T07:42:21.716Z,91.50
2019-03-23T07:44:50.548Z,91.20
2019-03-23T07:47:19.424Z,90.90
2019-03-23T07:49:48.295Z,90.60
2019-03-23T07:52:17.123Z,90.60
2019-03-23T07:54:45.990Z,90.00
2019-03-23T07:57:14.870Z,89.20
2019-03-23T07:59:43.739Z,88.20
2019-03-23T08:02:12.567Z,87.40
2019-03-23T08:04:41.460Z,86.40
2019-03-23T08:07:10.278Z,85.40
2019-03-23T08:09:39.124Z,83.30
2019-03-23T08:12:11.012Z,82.20
2019-03-23T08:14:39.884Z,81.20
2019-03-23T08:17:08.723Z,80.40
2019-03-23T08:19:37.604Z,79.20
2019-03-23T08:22:08.032Z,78.50
2019-03-23T08:24:37.097Z,77.80
2019-03-23T08:27:06.004Z,76.60
2019-03-23T08:29:34.864Z,75.50
2019-03-23T08:32:03.841Z,74.60
2019-03-23T08:34:32.817Z,73.80
2019-03-23T08:37:02.197Z,72.90
2019-03-23T08:39:31.127Z,71.80
2019-03-23T08:42:00.079Z,70.70
2019-03-23T08:44:28.947Z,69.60
2019-03-23T08:46:59.077Z,68.10
2019-03-23T08:49:28.712Z,66.50
2019-03-23T08:51:57.706Z,65.30
2019-03-23T08:54:26.543Z,63.60
2019-03-23T08:56:55.623Z,62.60
2019-03-23T08:59:24.681Z,61.60
2019-03-23T09:01:53.507Z,60.60
2019-03-23T09:04:22.378Z,60.30
2019-03-23T09:06:51.273Z,59.50
2019-03-23T09:09:20.115Z,58.90
2019-03-23T09:11:48.988Z,58.30
2019-03-23T09:14:17.864Z,57.70
2019-03-23T09:16:46.700Z,57.20
2019-03-23T09:19:15.581Z,56.90
2019-03-23T09:21:44.458Z,56.50
2019-03-23T09:24:13.318Z,55.90
2019-03-23T09:26:42.200Z,55.80
2019-03-23T09:29:11.028Z,55.40
2019-03-23T09:31:39.911Z,55.00
2019-03-23T09:34:08.797Z,54.50
2019-03-23T09:36:37.639Z,54.10
2019-03-23T09:39:07.584Z,53.70
2019-03-23T09:41:36.454Z,53.80
2019-03-23T09:44:05.305Z,53.40
2019-03-23T09:46:34.178Z,53.00
2019-03-23T09:49:03.162Z,52.50
2019-03-23T09:51:32.156Z,52.30
2019-03-23T09:54:00.968Z,52.20
2019-03-23T09:56:29.847Z,51.80
2019-03-23T09:58:58.692Z,51.50
2019-03-23T10:01:27.555Z,51.20
2019-03-23T10:03:56.386Z,50.80
2019-03-23T10:06:25.266Z,50.80
2019-03-23T10:08:54.191Z,50.90
2019-03-23T10:11:23.162Z,50.90
2019-03-23T10:13:52.052Z,50.80
2019-03-23T10:16:20.948Z,50.80
2019-03-23T10:18:49.963Z,50.60
2019-03-23T10:21:18.955Z,50.50
2019-03-23T10:23:47.947Z,50.40
2019-03-23T10:26:16.837Z,50.40
2019-03-23T10:28:45.730Z,50.20
2019-03-23T10:31:14.548Z,49.90
2019-03-23T10:33:43.419Z,49.50
2019-03-23T10:36:12.358Z,49.00
2019-03-23T10:38:41.235Z,48.70
2019-03-23T10:41:10.070Z,48.70
2019-03-23T10:43:39.126Z,48.60
2019-03-23T10:46:08.172Z,48.40
2019-03-23T10:48:37.044Z,48.20
2019-03-23T10:51:05.933Z,47.60
2019-03-23T10:53:35.049Z,47.20
2019-03-23T10:56:03.940Z,47.10
2019-03-23T10:58:32.832Z,46.60
2019-03-23T11:01:01.724Z,46.10
2019-03-23T11:03:30.614Z,46.20
2019-03-23T11:05:59.507Z,45.90
2019-03-23T11:08:28.374Z,45.40
2019-03-23T11:10:57.263Z,45.30
2019-03-23T11:13:26.281Z,45.10
2019-03-23T11:15:55.172Z,44.80
2019-03-23T11:18:24.167Z,44.20
2019-03-23T11:20:53.368Z,43.90
2019-03-23T11:23:22.256Z,43.70
2019-03-23T11:25:51.148Z,43.30
2019-03-23T11:28:20.140Z,42.80
2019-03-23T11:30:49.032Z,42.20
2019-03-23T11:33:17.924Z,42.10
2019-03-23T11:35:46.814Z,42.10
2019-03-23T11:38:15.705Z,41.30
2019-03-23T11:40:52.755Z,41.20
2019-03-23T11:43:15.229Z,40.40
2019-03-23T11:45:44.039Z,39.20
2019-03-23T11:48:12.929Z,39.10
2019-03-23T11:50:41.801Z,39.10
2019-03-23T11:53:10.666Z,38.60
2019-03-23T11:55:39.558Z,38.40
2019-03-23T11:58:08.576Z,38.60
2019-03-23T12:00:37.674Z,38.00
2019-03-23T12:03:06.666Z,37.30
2019-03-23T12:05:35.557Z,37.00
2019-03-23T12:08:04.550Z,36.20
2019-03-23T12:10:33.424Z,35.40
2019-03-23T12:13:02.334Z,35.30
2019-03-23T12:15:31.201Z,35.60
2019-03-23T12:18:01.943Z,35.80
2019-03-23T12:20:30.851Z,35.80
2019-03-23T12:22:59.719Z,35.50
2019-03-23T12:25:28.616Z,35.40
2019-03-23T12:27:57.524Z,35.80
2019-03-23T12:30:26.445Z,35.80
2019-03-23T12:32:55.429Z,35.40
2019-03-23T12:35:24.321Z,35.00
2019-03-23T12:37:53.171Z,34.90
2019-03-23T12:40:22.046Z,34.40
2019-03-23T12:42:50.881Z,33.90
2019-03-23T12:45:19.754Z,34.00
2019-03-23T12:47:48.583Z,33.80
2019-03-23T12:50:17.463Z,33.70
2019-03-23T12:52:46.537Z,33.40
2019-03-23T12:55:15.429Z,33.40
2019-03-23T12:57:44.301Z,33.30
2019-03-23T13:00:15.489Z,33.50
2019-03-23T13:02:44.356Z,33.70
2019-03-23T13:05:13.251Z,33.90
2019-03-23T13:07:42.065Z,34.30
2019-03-23T13:10:12.948Z,34.40
2019-03-23T13:12:41.792Z,34.50
2019-03-23T13:15:13.072Z,34.70
2019-03-23T13:17:42.005Z,34.90
2019-03-23T13:20:11.257Z,35.20
2019-03-23T13:22:40.504Z,35.40
2019-03-23T13:25:09.858Z,35.30
2019-03-23T13:27:38.900Z,35.20
2019-03-23T13:30:13.325Z,35.30
2019-03-23T13:32:42.316Z,35.40
2019-03-23T13:35:11.495Z,35.20
2019-03-23T13:37:40.509Z,35.20
2019-03-23T13:40:11.394Z,35.30
2019-03-23T13:42:40.270Z,35.20
2019-03-23T13:45:10.015Z,35.30
2019-03-23T13:47:39.597Z,35.20
2019-03-23T13:50:09.532Z,35.40
2019-03-23T13:52:38.424Z,36.10
2019-03-23T13:55:09.831Z,35.80
2019-03-23T13:57:38.708Z,36.20
2019-03-23T14:00:10.836Z,36.00
2019-03-23T14:02:39.712Z,36.30
2019-03-23T14:05:15.779Z,36.40
2019-03-23T14:07:39.083Z,36.40
2019-03-23T14:10:08.119Z,36.10
2019-03-23T14:12:36.990Z,36.00
2019-03-23T14:15:07.729Z,36.10
2019-03-23T14:17:36.615Z,36.20
2019-03-23T14:20:08.593Z,36.40
2019-03-23T14:22:37.456Z,36.20
2019-03-23T14:25:07.413Z,36.10
2019-03-23T14:27:36.284Z,35.90
2019-03-23T14:30:07.097Z,35.70
2019-03-23T14:32:35.976Z,35.40
2019-03-23T14:35:05.614Z,35.10
2019-03-23T14:37:34.499Z,35.10
2019-03-23T14:40:03.336Z,35.40
2019-03-23T14:42:32.223Z,35.60
2019-03-23T14:45:01.048Z,35.70
2019-03-23T14:47:29.931Z,35.80
2019-03-23T14:49:58.764Z,35.70
2019-03-23T14:52:27.640Z,35.70
2019-03-23T14:54:56.480Z,36.00
2019-03-23T14:57:25.356Z,35.90
2019-03-23T14:59:54.192Z,35.90
2019-03-23T15:02:23.089Z,35.60
2019-03-23T15:04:51.932Z,35.60
2019-03-23T15:07:20.768Z,35.70
2019-03-23T15:09:49.643Z,35.90
2019-03-23T15:12:18.480Z,35.90
2019-03-23T15:14:47.355Z,36.20
2019-03-23T15:17:16.183Z,36.60
2019-03-23T15:19:45.072Z,36.70
2019-03-23T15:22:13.908Z,36.80
2019-03-23T15:24:42.790Z,37.20
2019-03-23T15:27:11.625Z,37.40
2019-03-23T15:29:40.509Z,37.50
2019-03-23T15:32:09.392Z,37.60
2019-03-23T15:34:38.232Z,37.30
2019-03-23T15:37:07.080Z,37.20
2019-03-23T15:39:35.963Z,37.00
2019-03-23T15:42:04.809Z,36.90
2019-03-23T15:44:33.688Z,37.00
2019-03-23T15:47:02.523Z,37.10
2019-03-23T15:49:31.432Z,37.40
2019-03-23T15:52:00.248Z,37.40
2019-03-23T15:54:29.145Z,37.40
2019-03-23T15:56:57.984Z,37.30
2019-03-23T15:59:26.855Z,37.20
2019-03-23T16:01:55.744Z,37.50
2019-03-23T16:04:24.638Z,37.80
2019-03-23T16:06:53.526Z,38.10
2019-03-23T16:09:22.417Z,38.30
2019-03-23T16:11:51.308Z,38.60
2019-03-23T16:14:20.166Z,38.90
2019-03-23T16:16:49.009Z,39.20
2019-03-23T16:19:17.878Z,39.60
2019-03-23T16:21:46.710Z,40.00
2019-03-23T16:24:15.578Z,40.20
2019-03-23T16:26:44.415Z,40.40
2019-03-23T16:29:13.250Z,41.00
2019-03-23T16:31:42.130Z,41.50
2019-03-23T16:34:10.974Z,42.00
2019-03-23T16:36:39.846Z,42.50
2019-03-23T16:39:08.692Z,42.70
2019-03-23T16:41:37.567Z,43.00
2019-03-23T16:44:06.413Z,43.50
2019-03-23T16:46:35.283Z,43.90
2019-03-23T16:49:04.118Z,44.40
2019-03-23T16:51:32.990Z,44.90
2019-03-23T16:54:03.636Z,44.90
2019-03-23T16:56:32.359Z,44.80
2019-03-23T16:59:01.267Z,45.60
2019-03-23T17:01:30.161Z,46.10
2019-03-23T17:03:58.996Z,46.70
2019-03-23T17:06:27.882Z,47.10
2019-03-23T17:08:56.720Z,47.40
2019-03-23T17:11:25.587Z,47.50
2019-03-23T17:13:54.426Z,47.40
2019-03-23T17:16:23.299Z,47.70
2019-03-23T17:19:07.238Z,48.10
2019-03-23T17:21:36.112Z,48.20
2019-03-23T17:24:04.943Z,48.60
2019-03-23T17:26:33.816Z,49.00
2019-03-23T17:29:02.798Z,49.30
2019-03-23T17:31:31.619Z,50.20
2019-03-23T17:34:00.491Z,49.80
2019-03-23T17:36:44.458Z,50.00
2019-03-23T17:39:13.327Z,50.30
2019-03-23T17:41:42.317Z,50.80
2019-03-23T17:44:11.184Z,51.20
2019-03-23T17:46:40.100Z,51.40
2019-03-23T17:49:08.992Z,51.80
2019-03-23T17:51:37.882Z,52.00
2019-03-23T17:54:06.750Z,52.20
2019-03-23T17:56:35.665Z,52.50
2019-03-23T17:59:04.555Z,52.90
2019-03-23T18:01:33.424Z,53.20
2019-03-23T18:04:02.441Z,53.50
2019-03-23T18:06:31.415Z,53.70
2019-03-23T18:09:00.327Z,53.90
2019-03-23T18:11:29.319Z,54.10
2019-03-23T18:13:58.210Z,54.30
2019-03-23T18:16:27.204Z,54.80
2019-03-23T18:18:56.305Z,55.10
2019-03-23T18:21:25.154Z,55.30
2019-03-23T18:23:54.019Z,55.50
2019-03-23T18:26:22.886Z,55.80
2019-03-23T18:28:51.727Z,56.30
2019-03-23T18:31:20.595Z,56.30
2019-03-23T18:33:49.466Z,56.50
2019-03-23T18:36:18.302Z,57.00
2019-03-23T18:38:47.177Z,57.10
2019-03-23T18:41:17.072Z,57.30
2019-03-23T18:43:45.915Z,57.50
2019-03-23T18:46:14.778Z,57.80
2019-03-23T18:48:43.655Z,58.30
2019-03-23T18:51:12.489Z,58.20
2019-03-23T18:53:41.364Z,58.20
2019-03-23T18:56:10.236Z,58.70
2019-03-23T18:58:39.077Z,59.00
2019-03-23T19:01:07.956Z,59.30
2019-03-23T19:03:36.827Z,59.40
2019-03-23T19:06:05.660Z,59.50
2019-03-23T19:08:34.531Z,59.70
2019-03-23T19:11:03.406Z,59.90
2019-03-23T19:13:37.925Z,60.00
2019-03-23T19:16:02.764Z,60.20
2019-03-23T19:18:32.043Z,61.40
2019-03-23T19:21:00.875Z,61.00
2019-03-23T19:23:29.750Z,61.30
2019-03-23T19:25:58.631Z,61.60
2019-03-23T19:28:27.466Z,61.90
2019-03-23T19:30:56.344Z,62.10
2019-03-23T19:33:25.220Z,62.60
2019-03-23T19:35:54.166Z,62.80
2019-03-23T19:38:23.047Z,64.10
2019-03-23T19:40:51.884Z,63.70
2019-03-23T19:43:20.713Z,63.80
2019-03-23T19:45:49.584Z,63.70
2019-03-23T19:48:18.456Z,64.00
2019-03-23T19:50:47.300Z,64.30
2019-03-23T19:53:16.163Z,64.50
2019-03-23T19:55:45.071Z,64.80
2019-03-23T19:58:13.907Z,65.20
2019-03-23T20:00:42.793Z,65.40
2019-03-23T20:03:11.659Z,65.90
2019-03-23T20:05:52.583Z,66.20
2019-03-23T20:08:21.476Z,66.80
2019-03-23T20:10:50.325Z,67.20
2019-03-23T20:13:19.216Z,67.60
2019-03-23T20:15:48.143Z,67.90
2019-03-23T20:18:16.978Z,68.30
2019-03-23T20:21:03.947Z,69.80
2019-03-23T20:23:32.829Z,70.30
2019-03-23T20:26:01.647Z,70.60
2019-03-23T20:28:30.519Z,70.90
2019-03-23T20:30:59.387Z,71.20
2019-03-23T20:33:28.216Z,71.40
2019-03-23T20:35:57.083Z,71.60
2019-03-23T20:38:25.955Z,71.90
2019-03-23T20:40:54.783Z,71.90
2019-03-23T20:43:23.658Z,71.80
2019-03-23T20:45:52.524Z,71.80
2019-03-23T20:48:21.667Z,71.90
2019-03-23T20:50:50.639Z,72.10
2019-03-23T20:53:19.907Z,72.30
2019-03-23T20:55:48.749Z,72.50
2019-03-23T20:58:17.610Z,72.70
2019-03-23T21:00:46.483Z,72.90
2019-03-23T21:03:15.320Z,73.10
2019-03-23T21:05:44.192Z,73.30
2019-03-23T21:08:13.991Z,73.70
2019-03-23T21:10:42.824Z,73.80
2019-03-23T21:13:12.113Z,74.00
2019-03-23T21:15:44.231Z,74.30
2019-03-23T21:18:13.213Z,74.60
2019-03-23T21:20:42.054Z,74.70
2019-03-23T21:23:11.081Z,75.10
2019-03-23T21:25:39.917Z,75.40
2019-03-23T21:28:10.303Z,75.60
2019-03-23T21:30:39.217Z,75.90
2019-03-23T21:33:08.102Z,76.20
2019-03-23T21:35:37.199Z,76.40
2019-03-23T21:38:06.281Z,76.60
2019-03-23T21:40:35.313Z,77.00
2019-03-23T21:43:04.882Z,77.10
2019-03-23T21:45:33.851Z,77.60
2019-03-23T21:48:02.733Z,77.60
2019-03-23T21:50:31.663Z,77.70
2019-03-23T21:53:00.537Z,78.30
2019-03-23T21:55:29.359Z,78.60
2019-03-23T21:57:58.227Z,78.90
2019-03-23T22:00:32.640Z,79.20
2019-03-23T22:03:01.648Z,79.30
2019-03-23T22:05:30.746Z,79.60
2019-03-23T22:07:59.579Z,79.90
2019-03-23T22:10:28.767Z,80.00
2019-03-23T22:12:57.633Z,80.40
2019-03-23T22:15:28.139Z,80.70
2019-03-23T22:17:57.007Z,80.80
2019-03-23T22:20:25.879Z,81.10
2019-03-23T22:22:54.707Z,81.30
2019-03-23T22:25:23.584Z,81.70
2019-03-23T22:27:52.447Z,82.10
2019-03-23T22:30:21.275Z,82.50
2019-03-23T22:32:50.147Z,82.80
2019-03-23T22:35:19.019Z,83.10
2019-03-23T22:37:47.847Z,83.80
2019-03-23T22:40:16.815Z,84.70
2019-03-23T22:42:45.685Z,84.20
2019-03-23T22:45:14.521Z,84.50
2019-03-23T22:47:43.389Z,84.80
2019-03-23T22:50:12.958Z,85.10
2019-03-23T22:52:41.794Z,85.30
2019-03-23T22:55:11.064Z,85.60
2019-03-23T22:57:39.936Z,86.00
2019-03-23T23:00:12.007Z,86.20
2019-03-23T23:02:40.874Z,86.50
2019-03-23T23:05:09.950Z,86.70
2019-03-23T23:07:38.771Z,87.10
2019-03-23T23:10:07.843Z,87.50
2019-03-23T23:12:36.715Z,87.30
2019-03-23T23:15:08.727Z,87.40
2019-03-23T23:17:37.604Z,87.80
2019-03-23T23:20:07.672Z,87.90
2019-03-23T23:22:36.604Z,87.90
2019-03-23T23:25:08.371Z,87.90
2019-03-23T23:27:37.448Z,88.00
2019-03-23T23:30:08.679Z,88.10
2019-03-23T23:32:37.747Z,88.20
2019-03-23T23:35:08.523Z,88.30
2019-03-23T23:37:37.358Z,88.40
2019-03-23T23:40:07.125Z,88.50
2019-03-23T23:42:36.100Z,88.40
2019-03-23T23:45:15.368Z,88.30
2019-03-23T23:47:39.566Z,88.30
2019-03-23T23:50:09.038Z,88.10
2019-03-23T23:52:37.873Z,88.10
2019-03-23T23:55:07.357Z,88.20
2019-03-23T23:57:36.223Z,88.10
